createdAt,value
2023-02-28T00:01:31.825Z,99.90
2023-02-28T00:04:00.392Z,99.90
2023-02-28T00:06:29.670Z,99.90
2023-02-28T00:08:57.980Z,99.90
2023-02-28T00:11:26.327Z,99.90
2023-02-28T00:13:54.887Z,99.90
2023-02-28T00:16:25.058Z,99.90
2023-02-28T00:18:53.406Z,99.90
2023-02-28T00:21:22.656Z,99.90
2023-02-28T00:23:51.068Z,99.90
2023-02-28T00:26:21.720Z,99.90
2023-02-28T00:28:51.262Z,99.90
2023-02-28T00:31:19.586Z,99.90
2023-02-28T00:33:52.745Z,99.90
2023-02-28T00:36:22.688Z,99.90
2023-02-28T00:38:50.955Z,99.90
2023-02-28T00:41:19.481Z,99.90
2023-02-28T00:43:49.516Z,99.90
2023-02-28T00:46:18.025Z,99.90
2023-02-28T00:48:46.408Z,99.90
2023-02-28T00:51:16.064Z,99.90
2023-02-28T00:53:44.376Z,99.90
2023-02-28T00:56:12.651Z,99.90
2023-02-28T00:58:40.964Z,99.90
2023-02-28T01:01:09.257Z,99.90
2023-02-28T01:03:40.381Z,99.90
2023-02-28T01:06:09.015Z,99.90
2023-02-28T01:08:38.656Z,99.90
2023-02-28T01:11:11.541Z,99.90
2023-02-28T01:13:42.761Z,99.90
2023-02-28T01:16:11.318Z,99.90
2023-02-28T01:18:40.264Z,99.90
2023-02-28T01:21:11.303Z,99.90
2023-02-28T01:23:43.204Z,99.90
2023-02-28T01:26:15.494Z,99.90
2023-02-28T01:28:44.217Z,99.90
2023-02-28T01:31:13.560Z,99.90
2023-02-28T01:33:42.259Z,99.90
2023-02-28T01:36:12.761Z,99.90
2023-02-28T01:38:42.750Z,99.90
2023-02-28T01:41:16.673Z,99.90
2023-02-28T01:44:05.199Z,99.90
2023-02-28T01:46:35.696Z,99.90
2023-02-28T01:49:09.492Z,99.90
2023-02-28T01:51:46.608Z,99.90
2023-02-28T01:54:18.982Z,99.90
2023-02-28T01:56:53.126Z,99.90
2023-02-28T01:59:27.833Z,99.90
2023-02-28T02:01:57.702Z,99.90
2023-02-28T02:04:28.205Z,99.90
2023-02-28T02:06:57.136Z,99.90
2023-02-28T02:09:26.784Z,99.90
2023-02-28T02:11:57.938Z,99.90
2023-02-28T02:14:54.657Z,99.90
2023-02-28T02:17:30.405Z,99.90
2023-02-28T02:20:35.982Z,99.90
2023-02-28T02:23:35.112Z,99.90
2023-02-28T02:26:21.536Z,99.90
2023-02-28T02:29:09.559Z,99.90
2023-02-28T02:32:09.095Z,99.90
2023-02-28T02:34:48.202Z,99.90
2023-02-28T02:37:35.280Z,99.90
2023-02-28T02:40:12.435Z,99.90
2023-02-28T02:42:47.226Z,99.90
2023-02-28T02:45:20.229Z,99.90
2023-02-28T02:47:50.177Z,99.90
2023-02-28T02:50:25.266Z,99.90
2023-02-28T02:52:58.747Z,99.90
2023-02-28T02:55:28.049Z,99.90
2023-02-28T02:58:01.101Z,99.90
2023-02-28T03:00:34.663Z,99.90
2023-02-28T03:03:05.687Z,99.90
2023-02-28T03:05:43.570Z,99.90
2023-02-28T03:08:12.356Z,99.90
2023-02-28T03:10:43.425Z,99.90
2023-02-28T03:13:42.345Z,99.90
2023-02-28T03:16:51.844Z,99.90
2023-02-28T03:19:42.151Z,99.90
2023-02-28T03:22:20.454Z,99.90
2023-02-28T03:24:55.781Z,99.90
2023-02-28T03:27:28.261Z,99.90
2023-02-28T03:30:03.127Z,99.90
2023-02-28T03:32:37.094Z,99.90
2023-02-28T03:35:11.380Z,99.90
2023-02-28T03:37:45.808Z,99.90
2023-02-28T03:40:18.358Z,99.90
2023-02-28T03:42:50.644Z,99.90
2023-02-28T03:45:23.524Z,99.90
2023-02-28T03:47:55.532Z,99.90
2023-02-28T03:50:27.407Z,99.90
2023-02-28T03:53:05.782Z,99.90
2023-02-28T03:55:40.348Z,99.90
2023-02-28T03:58:17.463Z,99.90
2023-02-28T04:00:49.575Z,99.90
2023-02-28T04:03:18.288Z,99.90
2023-02-28T04:05:52.187Z,99.90
2023-02-28T04:08:22.748Z,99.90
2023-02-28T04:10:56.082Z,99.90
2023-02-28T04:13:24.563Z,99.90
2023-02-28T04:15:53.081Z,99.90
2023-02-28T04:18:21.628Z,99.90
2023-02-28T04:20:50.119Z,99.90
2023-02-28T04:23:18.701Z,99.90
2023-02-28T04:25:48.545Z,99.90
2023-02-28T04:28:16.952Z,99.90
2023-02-28T04:30:45.337Z,99.90
2023-02-28T04:33:13.771Z,99.90
2023-02-28T04:35:42.242Z,99.90
2023-02-28T04:38:10.739Z,99.90
2023-02-28T04:40:39.207Z,99.90
2023-02-28T04:43:09.005Z,99.90
2023-02-28T04:45:37.712Z,99.90
2023-02-28T04:48:06.715Z,99.90
2023-02-28T04:50:35.104Z,99.90
2023-02-28T04:53:03.460Z,99.90
2023-02-28T04:55:31.952Z,99.90
2023-02-28T04:58:03.259Z,99.90
2023-02-28T05:00:32.936Z,99.90
2023-02-28T05:03:01.222Z,99.90
2023-02-28T05:05:29.628Z,99.90
2023-02-28T05:07:58.282Z,99.90
2023-02-28T05:10:26.953Z,99.90
2023-02-28T05:12:55.239Z,99.90
2023-02-28T05:15:23.650Z,99.90
2023-02-28T05:17:53.379Z,99.90
2023-02-28T05:20:21.932Z,99.90
2023-02-28T05:22:51.537Z,99.90
2023-02-28T05:25:22.585Z,99.90
2023-02-28T05:27:51.806Z,99.90
2023-02-28T05:30:20.893Z,99.90
2023-02-28T05:32:53.797Z,99.90
2023-02-28T05:35:22.035Z,99.90
2023-02-28T05:37:50.314Z,99.90
2023-02-28T05:40:20.553Z,99.90
2023-02-28T05:42:48.926Z,99.90
2023-02-28T05:45:18.055Z,99.90
2023-02-28T05:47:46.498Z,99.90
2023-02-28T05:50:16.305Z,99.90
2023-02-28T05:52:44.624Z,99.90
2023-02-28T05:55:12.937Z,99.90
2023-02-28T05:57:41.224Z,99.90
2023-02-28T06:00:10.804Z,99.90
2023-02-28T06:02:42.057Z,99.90
2023-02-28T06:05:17.605Z,99.90
2023-02-28T06:07:46.486Z,99.90
2023-02-28T06:10:15.849Z,99.90
2023-02-28T06:12:44.556Z,99.90
2023-02-28T06:15:16.013Z,99.90
2023-02-28T06:17:45.551Z,99.90
2023-02-28T06:20:14.806Z,99.90
2023-02-28T06:22:44.520Z,99.90
2023-02-28T06:25:13.235Z,99.90
2023-02-28T06:27:41.904Z,99.90
2023-02-28T06:30:11.531Z,99.90
2023-02-28T06:32:40.263Z,99.90
2023-02-28T06:35:09.403Z,99.90
2023-02-28T06:37:39.078Z,99.90
2023-02-28T06:40:11.745Z,99.90
2023-02-28T06:42:40.267Z,99.90
2023-02-28T06:45:10.695Z,99.90
2023-02-28T06:47:40.197Z,99.90
2023-02-28T06:50:10.589Z,99.90
2023-02-28T06:52:39.080Z,99.90
2023-02-28T06:55:10.218Z,99.90
2023-02-28T06:57:38.829Z,99.90
2023-02-28T07:00:11.160Z,99.90
2023-02-28T07:02:39.857Z,99.90
2023-02-28T07:05:08.837Z,99.90
2023-02-28T07:07:39.093Z,99.90
2023-02-28T07:10:09.723Z,99.90
2023-02-28T07:12:39.455Z,99.90
2023-02-28T07:15:09.080Z,99.90
2023-02-28T07:17:37.390Z,99.90
2023-02-28T07:20:06.615Z,99.90
2023-02-28T07:22:35.180Z,99.90
2023-02-28T07:25:03.480Z,99.90
2023-02-28T07:27:35.860Z,99.90
2023-02-28T07:30:04.705Z,99.90
2023-02-28T07:32:33.263Z,99.90
2023-02-28T07:35:01.554Z,99.90
2023-02-28T07:37:32.603Z,99.90
2023-02-28T07:40:01.063Z,99.90
2023-02-28T07:42:29.332Z,99.90
2023-02-28T07:44:59.961Z,99.90
2023-02-28T07:47:28.371Z,99.90
2023-02-28T07:49:56.680Z,99.90
2023-02-28T07:52:25.309Z,99.90
2023-02-28T07:54:54.020Z,99.90
2023-02-28T07:57:22.443Z,99.90
2023-02-28T07:59:50.831Z,99.90
2023-02-28T08:02:21.233Z,99.90
2023-02-28T08:04:50.054Z,99.90
2023-02-28T08:07:19.795Z,99.90
2023-02-28T08:09:48.114Z,99.90
2023-02-28T08:12:16.409Z,99.90
2023-02-28T08:14:44.804Z,99.90
2023-02-28T08:17:13.944Z,99.90
2023-02-28T08:19:43.634Z,99.90
2023-02-28T08:22:11.914Z,99.90
2023-02-28T08:24:40.873Z,99.90
2023-02-28T08:27:12.151Z,99.90
2023-02-28T08:29:40.594Z,99.90
2023-02-28T08:32:20.543Z,99.90
2023-02-28T08:34:58.671Z,99.90
2023-02-28T08:37:27.369Z,99.90
2023-02-28T08:39:56.475Z,99.90
2023-02-28T08:42:24.968Z,99.90
2023-02-28T08:44:53.468Z,99.90
2023-02-28T08:47:21.928Z,99.90
2023-02-28T08:49:50.337Z,99.90
2023-02-28T08:52:19.994Z,99.90
2023-02-28T08:54:48.338Z,99.90
2023-02-28T08:57:16.649Z,99.90
2023-02-28T08:59:45.038Z,99.90
2023-02-28T09:02:15.331Z,99.90
2023-02-28T09:04:46.319Z,99.90
2023-02-28T09:07:14.980Z,99.90
2023-02-28T09:09:54.721Z,99.90
2023-02-28T09:12:24.050Z,99.90
2023-02-28T09:14:52.698Z,99.90
2023-02-28T09:17:21.559Z,99.90
2023-02-28T09:19:50.421Z,99.90
2023-02-28T09:22:18.839Z,99.90
2023-02-28T09:24:48.561Z,99.90
2023-02-28T09:27:16.936Z,99.90
2023-02-28T09:29:45.364Z,99.90
2023-02-28T09:32:13.898Z,99.90
2023-02-28T09:34:42.450Z,99.90
2023-02-28T09:37:10.823Z,99.90
2023-02-28T09:39:39.126Z,99.90
2023-02-28T09:42:22.231Z,99.90
2023-02-28T09:44:52.306Z,99.90
2023-02-28T09:47:28.625Z,99.90
2023-02-28T09:49:59.184Z,99.90
2023-02-28T09:52:31.869Z,99.90
2023-02-28T09:55:10.316Z,99.90
2023-02-28T09:57:42.307Z,99.90
2023-02-28T10:00:19.200Z,99.90
2023-02-28T10:03:06.236Z,99.90
2023-02-28T10:05:41.794Z,99.90
2023-02-28T10:08:16.100Z,99.90
2023-02-28T10:10:47.262Z,99.90
2023-02-28T10:13:25.343Z,99.90
2023-02-28T10:15:57.360Z,99.90
2023-02-28T10:18:31.127Z,99.90
2023-02-28T10:21:01.765Z,99.90
2023-02-28T10:23:35.651Z,99.90
2023-02-28T10:26:13.524Z,99.90
2023-02-28T10:28:43.403Z,99.90
2023-02-28T10:31:17.620Z,99.90
2023-02-28T10:33:46.545Z,99.90
2023-02-28T10:36:18.407Z,99.90
2023-02-28T10:38:48.206Z,99.90
2023-02-28T10:41:19.046Z,99.90
2023-02-28T10:43:48.712Z,99.90
2023-02-28T10:46:27.579Z,99.90
2023-02-28T10:49:06.383Z,99.90
2023-02-28T10:51:39.639Z,99.30
2023-02-28T10:54:16.584Z,98.80
2023-02-28T10:56:44.929Z,99.00
2023-02-28T10:59:31.224Z,98.90
2023-02-28T11:02:00.098Z,98.80
2023-02-28T11:04:39.092Z,98.90
2023-02-28T11:07:17.682Z,98.50
2023-02-28T11:09:50.287Z,98.30
2023-02-28T11:12:29.292Z,98.50
2023-02-28T11:15:03.117Z,98.60
2023-02-28T11:17:33.773Z,98.30
2023-02-28T11:20:08.069Z,98.40
2023-02-28T11:22:41.107Z,98.70
2023-02-28T11:25:12.540Z,98.60
2023-02-28T11:27:50.505Z,98.40
2023-02-28T11:30:36.382Z,98.40
2023-02-28T11:33:23.519Z,98.20
2023-02-28T11:35:53.224Z,97.70
2023-02-28T11:38:21.703Z,98.10
2023-02-28T11:41:01.727Z,97.90
2023-02-28T11:43:45.708Z,97.80
2023-02-28T11:46:26.427Z,98.00
2023-02-28T11:49:03.846Z,98.00
2023-02-28T11:51:36.469Z,98.00
2023-02-28T11:54:23.680Z,98.20
2023-02-28T11:56:57.133Z,98.50
2023-02-28T11:59:49.808Z,98.40
2023-02-28T12:02:27.420Z,98.10
2023-02-28T12:05:13.085Z,98.10
2023-02-28T12:07:50.419Z,98.20
2023-02-28T12:10:25.372Z,98.40
2023-02-28T12:13:10.837Z,98.50
2023-02-28T12:15:59.178Z,98.00
2023-02-28T12:18:48.210Z,98.20
2023-02-28T12:21:27.047Z,98.40
2023-02-28T12:24:09.261Z,98.30
2023-02-28T12:26:40.463Z,98.10
2023-02-28T12:29:16.909Z,98.00
2023-02-28T12:31:51.901Z,98.00
2023-02-28T12:34:27.353Z,97.90
2023-02-28T12:36:57.911Z,98.10
2023-02-28T12:39:34.324Z,98.10
2023-02-28T12:42:13.750Z,98.00
2023-02-28T12:44:51.246Z,98.00
2023-02-28T12:47:20.639Z,98.20
2023-02-28T12:49:55.650Z,98.20
2023-02-28T12:52:30.753Z,98.40
2023-02-28T12:55:05.006Z,98.30
2023-02-28T12:57:41.575Z,97.80
2023-02-28T13:00:15.383Z,97.70
2023-02-28T13:03:25.096Z,97.80
2023-02-28T13:06:23.117Z,97.40
2023-02-28T13:09:04.177Z,97.30
2023-02-28T13:11:35.763Z,97.50
2023-02-28T13:14:06.938Z,97.50
2023-02-28T13:16:59.011Z,97.50
2023-02-28T13:19:30.118Z,97.30
2023-02-28T13:22:01.674Z,97.10
2023-02-28T13:24:43.246Z,97.20
2023-02-28T13:27:26.355Z,97.10
2023-02-28T13:29:55.522Z,97.10
2023-02-28T13:32:41.621Z,97.30
2023-02-28T13:35:46.106Z,97.50
2023-02-28T13:38:38.124Z,97.80
2023-02-28T13:41:44.070Z,97.20
2023-02-28T13:44:14.385Z,97.40
2023-02-28T13:47:22.538Z,97.00
2023-02-28T13:49:53.009Z,96.40
2023-02-28T13:52:24.748Z,96.50
2023-02-28T13:55:06.012Z,96.70
2023-02-28T13:57:50.231Z,96.20
2023-02-28T14:00:30.418Z,96.40
2023-02-28T14:03:16.958Z,96.60
2023-02-28T14:05:45.974Z,96.60
2023-02-28T14:08:18.931Z,96.60
2023-02-28T14:10:51.277Z,96.70
2023-02-28T14:13:45.754Z,96.60
2023-02-28T14:16:16.778Z,96.80
2023-02-28T14:18:52.058Z,96.80
2023-02-28T14:21:26.814Z,96.90
2023-02-28T14:24:43.063Z,96.90
2023-02-28T14:27:35.862Z,96.80
2023-02-28T14:30:40.198Z,96.80
2023-02-28T14:33:25.001Z,96.50
2023-02-28T14:36:08.012Z,96.70
2023-02-28T14:38:42.411Z,96.70
2023-02-28T14:41:20.607Z,96.70
2023-02-28T14:43:57.273Z,96.70
2023-02-28T14:46:31.102Z,96.60
2023-02-28T14:48:59.835Z,96.50
2023-02-28T14:51:28.380Z,96.60
2023-02-28T14:54:01.404Z,96.50
2023-02-28T14:56:34.971Z,96.20
2023-02-28T14:59:05.504Z,96.00
2023-02-28T15:01:34.702Z,95.90
2023-02-28T15:04:05.648Z,95.90
2023-02-28T15:06:34.870Z,96.10
2023-02-28T15:09:11.059Z,96.40
2023-02-28T15:11:41.529Z,96.50
2023-02-28T15:14:19.194Z,96.70
2023-02-28T15:16:50.728Z,96.70
2023-02-28T15:19:25.274Z,96.70
2023-02-28T15:21:58.209Z,96.60
2023-02-28T15:24:33.844Z,96.50
2023-02-28T15:27:05.293Z,96.40
2023-02-28T15:29:43.461Z,96.50
2023-02-28T15:32:26.451Z,96.50
2023-02-28T15:34:55.613Z,96.40
2023-02-28T15:37:35.695Z,96.40
2023-02-28T15:40:13.708Z,96.40
2023-02-28T15:42:44.737Z,96.60
2023-02-28T15:45:42.148Z,96.80
2023-02-28T15:48:22.820Z,96.90
2023-02-28T15:50:54.812Z,96.70
2023-02-28T15:53:26.289Z,96.80
2023-02-28T15:56:02.117Z,97.00
2023-02-28T15:58:30.903Z,96.70
2023-02-28T16:01:08.149Z,97.20
2023-02-28T16:03:47.087Z,97.00
2023-02-28T16:06:40.289Z,96.90
2023-02-28T16:09:12.005Z,96.90
2023-02-28T16:11:44.168Z,97.10
2023-02-28T16:14:20.808Z,97.20
2023-02-28T16:16:53.812Z,97.10
2023-02-28T16:19:24.728Z,97.10
2023-02-28T16:21:53.254Z,97.10
2023-02-28T16:24:21.481Z,97.10
2023-02-28T16:26:52.702Z,97.10
2023-02-28T16:29:27.175Z,97.30
2023-02-28T16:31:57.034Z,97.50
2023-02-28T16:34:25.968Z,97.60
2023-02-28T16:36:54.326Z,97.80
2023-02-28T16:39:23.099Z,97.90
2023-02-28T16:41:53.080Z,98.00
2023-02-28T16:44:29.772Z,98.00
2023-02-28T16:47:01.732Z,98.10
2023-02-28T16:49:30.168Z,98.00
2023-02-28T16:51:58.410Z,97.90
2023-02-28T16:54:27.632Z,98.00
2023-02-28T16:56:56.289Z,98.10
2023-02-28T16:59:26.556Z,98.10
2023-02-28T17:01:55.191Z,98.20
2023-02-28T17:04:25.251Z,98.10
2023-02-28T17:06:53.665Z,98.20
2023-02-28T17:09:28.262Z,98.20
2023-02-28T17:12:00.443Z,98.40
2023-02-28T17:14:28.982Z,98.50
2023-02-28T17:17:01.389Z,98.60
2023-02-28T17:19:31.308Z,98.60
2023-02-28T17:22:00.119Z,98.60
2023-02-28T17:24:31.239Z,98.60
2023-02-28T17:27:00.028Z,98.60
2023-02-28T17:29:28.449Z,98.80
2023-02-28T17:32:00.654Z,99.00
2023-02-28T17:34:30.982Z,99.00
2023-02-28T17:36:59.504Z,99.20
2023-02-28T17:39:27.907Z,99.30
2023-02-28T17:41:57.183Z,99.10
2023-02-28T17:44:26.124Z,99.50
2023-02-28T17:46:56.959Z,99.10
2023-02-28T17:49:25.476Z,99.10
2023-02-28T17:51:55.181Z,99.10
2023-02-28T17:54:23.567Z,99.10
2023-02-28T17:56:51.848Z,99.10
2023-02-28T17:59:20.277Z,99.20
2023-02-28T18:01:48.661Z,99.20
2023-02-28T18:04:16.994Z,99.30
2023-02-28T18:06:48.329Z,99.30
2023-02-28T18:09:19.819Z,99.60
2023-02-28T18:11:49.627Z,99.80
2023-02-28T18:14:18.833Z,99.80
2023-02-28T18:16:47.768Z,99.90
2023-02-28T18:19:17.718Z,99.90
2023-02-28T18:21:47.541Z,99.80
2023-02-28T18:24:18.244Z,99.80
2023-02-28T18:26:46.771Z,99.80
2023-02-28T18:29:19.544Z,99.80
2023-02-28T18:31:48.076Z,99.90
2023-02-28T18:34:16.738Z,99.70
2023-02-28T18:36:47.164Z,99.60
2023-02-28T18:39:17.130Z,99.50
2023-02-28T18:41:45.497Z,99.50
2023-02-28T18:44:19.748Z,99.50
2023-02-28T18:46:49.392Z,99.50
2023-02-28T18:49:17.803Z,99.40
2023-02-28T18:51:46.738Z,99.60
2023-02-28T18:54:17.646Z,99.60
2023-02-28T18:56:46.360Z,99.80
2023-02-28T18:59:14.685Z,99.80
2023-02-28T19:01:43.387Z,99.70
2023-02-28T19:04:14.268Z,99.80
2023-02-28T19:06:43.160Z,99.80
2023-02-28T19:09:11.839Z,99.70
2023-02-28T19:11:41.652Z,99.80
2023-02-28T19:14:10.474Z,99.90
2023-02-28T19:16:38.958Z,99.90
2023-02-28T19:19:07.605Z,99.90
2023-02-28T19:21:36.733Z,99.90
2023-02-28T19:24:05.797Z,99.90
2023-02-28T19:26:34.129Z,99.90
2023-02-28T19:29:06.016Z,99.90
2023-02-28T19:31:34.756Z,99.90
2023-02-28T19:34:03.392Z,99.90
2023-02-28T19:36:31.766Z,99.90
2023-02-28T19:38:59.992Z,99.90
2023-02-28T19:41:28.501Z,99.90
2023-02-28T19:43:56.970Z,99.90
2023-02-28T19:46:27.020Z,99.90
2023-02-28T19:48:55.597Z,99.90
2023-02-28T19:51:24.219Z,99.90
2023-02-28T19:53:52.889Z,99.90
2023-02-28T19:56:21.274Z,99.90
2023-02-28T19:58:49.573Z,99.90
2023-02-28T20:01:20.258Z,99.90
2023-02-28T20:03:51.378Z,99.90
2023-02-28T20:06:19.770Z,99.90
2023-02-28T20:08:48.078Z,99.90
2023-02-28T20:11:17.935Z,99.90
2023-02-28T20:13:47.251Z,99.90
2023-02-28T20:16:16.416Z,99.90
2023-02-28T20:18:45.896Z,99.90
2023-02-28T20:21:16.654Z,99.90
2023-02-28T20:23:45.952Z,99.90
2023-02-28T20:26:14.462Z,99.90
2023-02-28T20:28:44.059Z,99.90
2023-02-28T20:31:13.917Z,99.90
2023-02-28T20:33:42.689Z,99.90
2023-02-28T20:36:12.626Z,99.90
2023-02-28T20:38:42.688Z,99.90
2023-02-28T20:41:11.565Z,99.90
2023-02-28T20:43:40.551Z,99.90
2023-02-28T20:46:09.438Z,99.90
2023-02-28T20:48:38.379Z,99.90
2023-02-28T20:51:07.862Z,99.90
2023-02-28T20:53:37.354Z,99.90
2023-02-28T20:56:10.015Z,99.90
2023-02-28T20:58:39.419Z,99.90
2023-02-28T21:01:12.936Z,99.90
2023-02-28T21:03:41.514Z,99.90
2023-02-28T21:06:10.098Z,99.90
2023-02-28T21:08:39.848Z,99.90
2023-02-28T21:11:10.841Z,99.90
2023-02-28T21:13:39.494Z,99.90
2023-02-28T21:16:09.538Z,99.90
2023-02-28T21:18:38.521Z,99.90
2023-02-28T21:21:08.411Z,99.90
2023-02-28T21:23:36.694Z,99.90
2023-02-28T21:26:05.886Z,99.90
2023-02-28T21:28:35.905Z,99.90
2023-02-28T21:31:05.176Z,99.90
2023-02-28T21:33:34.796Z,99.90
2023-02-28T21:36:05.354Z,99.90
2023-02-28T21:38:34.518Z,99.90
2023-02-28T21:41:07.240Z,99.90
2023-02-28T21:43:37.365Z,99.90
2023-02-28T21:46:07.796Z,99.90
2023-02-28T21:48:36.798Z,99.90
2023-02-28T21:51:06.914Z,99.90
2023-02-28T21:53:37.087Z,99.90
2023-02-28T21:56:08.503Z,99.90
2023-02-28T21:58:38.227Z,99.90
2023-02-28T22:01:07.833Z,99.90
2023-02-28T22:03:36.605Z,99.90
2023-02-28T22:06:12.642Z,99.90
2023-02-28T22:08:41.294Z,99.90
2023-02-28T22:11:10.508Z,99.90
2023-02-28T22:13:41.193Z,99.90
2023-02-28T22:16:12.010Z,99.90
2023-02-28T22:18:41.191Z,99.90
2023-02-28T22:21:10.632Z,99.90
2023-02-28T22:23:40.298Z,99.90
2023-02-28T22:26:10.909Z,99.90
2023-02-28T22:28:40.684Z,99.90
2023-02-28T22:31:17.607Z,99.90
2023-02-28T22:33:46.690Z,99.90
2023-02-28T22:36:16.304Z,99.90
2023-02-28T22:38:45.789Z,99.90
2023-02-28T22:41:14.786Z,99.90
2023-02-28T22:43:45.091Z,99.90
2023-02-28T22:46:14.819Z,99.90
2023-02-28T22:48:43.173Z,99.90
2023-02-28T22:51:14.979Z,99.90
2023-02-28T22:53:45.536Z,99.90
2023-02-28T22:56:15.836Z,99.90
2023-02-28T22:58:49.278Z,99.90
2023-02-28T23:01:18.970Z,99.90
2023-02-28T23:03:47.372Z,99.90
2023-02-28T23:06:18.755Z,99.90
2023-02-28T23:08:47.323Z,99.90
2023-02-28T23:11:20.240Z,99.90
2023-02-28T23:13:59.287Z,99.90
2023-02-28T23:16:29.900Z,99.90
2023-02-28T23:18:59.681Z,99.90
2023-02-28T23:21:28.764Z,99.90
2023-02-28T23:23:57.488Z,99.90
2023-02-28T23:26:26.159Z,99.90
2023-02-28T23:28:56.161Z,99.90
2023-02-28T23:31:24.900Z,99.90
2023-02-28T23:33:53.143Z,99.90
2023-02-28T23:36:21.953Z,99.90
2023-02-28T23:38:52.037Z,99.90
2023-02-28T23:41:22.260Z,99.90
2023-02-28T23:43:51.144Z,99.90
2023-02-28T23:46:21.870Z,99.90
2023-02-28T23:48:50.374Z,99.90
2023-02-28T23:51:20.823Z,99.90
2023-02-28T23:53:51.280Z,99.90
2023-02-28T23:56:22.338Z,99.90
2023-02-28T23:58:51.434Z,99.90
